createdAt,value
2023-12-26T00:02:54.220Z,96811.28
2023-12-26T00:07:56.133Z,96809.88
2023-12-26T00:12:58.482Z,96812.88
2023-12-26T00:18:00.612Z,96806.81
2023-12-26T00:23:02.512Z,96800.28
2023-12-26T00:28:05.215Z,96798.91
2023-12-26T00:33:07.561Z,96794.53
2023-12-26T00:38:09.322Z,96794.81
2023-12-26T00:43:11.732Z,96785.53
2023-12-26T00:48:13.937Z,96789.38
2023-12-26T00:53:15.829Z,96786.66
2023-12-26T00:58:17.813Z,96780.91
2023-12-26T01:03:23.376Z,96781.44
2023-12-26T01:08:25.480Z,96785.53
2023-12-26T01:13:31.166Z,96786.34
2023-12-26T01:18:33.116Z,96787.69
2023-12-26T01:23:35.698Z,96792.88
2023-12-26T01:28:37.839Z,96788.97
2023-12-26T01:33:41.003Z,96794.44
2023-12-26T01:38:43.057Z,96803.97
2023-12-26T01:43:45.023Z,96798.47
2023-12-26T01:48:51.296Z,96814.19
2023-12-26T01:53:53.377Z,96816.03
2023-12-26T01:58:55.238Z,96813.03
2023-12-26T02:03:59.354Z,96805.91
2023-12-26T02:09:01.346Z,96803.44
2023-12-26T02:14:03.723Z,96789.19
2023-12-26T02:19:06.993Z,96794.06
2023-12-26T02:24:09.173Z,96785.59
2023-12-26T02:29:11.791Z,96782.25
2023-12-26T02:34:13.776Z,96787.03
2023-12-26T02:39:16.405Z,96789.72
2023-12-26T02:44:18.312Z,96790.25
2023-12-26T02:49:20.778Z,96781.00
2023-12-26T02:54:22.567Z,96787.53
2023-12-26T02:59:24.356Z,96780.16
2023-12-26T03:04:27.249Z,96789.56
2023-12-26T03:09:29.201Z,96797.06
2023-12-26T03:14:31.031Z,96787.84
2023-12-26T03:19:33.379Z,96793.81
2023-12-26T03:24:35.296Z,96799.78
2023-12-26T03:29:37.270Z,96795.38
2023-12-26T03:34:39.327Z,96801.94
2023-12-26T03:39:42.356Z,96810.88
2023-12-26T03:44:47.928Z,96810.81
2023-12-26T03:49:50.126Z,96813.28
2023-12-26T03:54:53.181Z,96808.31
2023-12-26T03:59:56.327Z,96817.88
2023-12-26T04:04:58.436Z,96830.44
2023-12-26T04:10:00.491Z,96833.16
2023-12-26T04:15:03.721Z,96835.38
2023-12-26T04:20:06.118Z,96847.97
2023-12-26T04:25:08.451Z,96846.00
2023-12-26T04:30:11.589Z,96854.72
2023-12-26T04:35:14.328Z,96855.53
2023-12-26T04:40:16.654Z,96872.97
2023-12-26T04:45:18.744Z,96865.31
2023-12-26T04:50:20.816Z,96875.03
2023-12-26T04:55:22.561Z,96877.25
2023-12-26T05:00:24.832Z,96883.78
2023-12-26T05:05:27.332Z,96885.50
2023-12-26T05:10:29.471Z,96880.47
2023-12-26T05:15:31.616Z,96891.38
2023-12-26T05:20:33.597Z,96901.13
2023-12-26T05:25:35.469Z,96902.13
2023-12-26T05:30:38.356Z,96922.28
2023-12-26T05:35:40.399Z,96921.56
2023-12-26T05:40:42.404Z,96936.63
2023-12-26T05:45:44.292Z,96928.09
2023-12-26T05:50:47.192Z,96933.16
2023-12-26T05:55:50.748Z,96933.25
2023-12-26T06:00:53.207Z,96928.19
2023-12-26T06:05:55.142Z,96924.13
2023-12-26T06:10:57.710Z,96934.50
2023-12-26T06:16:00.197Z,96935.56
2023-12-26T06:21:02.914Z,96943.75
2023-12-26T06:26:08.620Z,96949.19
2023-12-26T06:31:15.652Z,96966.63
2023-12-26T06:36:18.087Z,96958.44
2023-12-26T06:41:20.267Z,96971.50
2023-12-26T06:46:22.846Z,96984.06
2023-12-26T06:51:24.883Z,96985.41
2023-12-26T06:56:26.759Z,96999.28
2023-12-26T07:01:29.541Z,97017.25
2023-12-26T07:06:31.797Z,97015.63
2023-12-26T07:11:34.592Z,97013.69
2023-12-26T07:16:36.879Z,97020.50
2023-12-26T07:21:38.587Z,97026.44
2023-12-26T07:26:40.426Z,97030.50
2023-12-26T07:31:42.223Z,97041.66
2023-12-26T07:36:43.996Z,97036.47
2023-12-26T07:41:46.407Z,97038.94
2023-12-26T07:46:50.093Z,97055.81
2023-12-26T07:51:52.310Z,97049.88
2023-12-26T07:56:54.113Z,97056.72
2023-12-26T08:01:56.087Z,97058.16
2023-12-26T08:06:57.910Z,97065.91
2023-12-26T08:12:00.584Z,97062.69
2023-12-26T08:17:02.481Z,97076.38
2023-12-26T08:22:04.223Z,97078.09
2023-12-26T08:27:06.129Z,97093.41
2023-12-26T08:32:07.951Z,97103.81
2023-12-26T08:37:09.985Z,97115.84
2023-12-26T08:42:11.932Z,97125.16
2023-12-26T08:47:14.285Z,97151.88
2023-12-26T08:52:16.234Z,97143.19
2023-12-26T08:57:18.132Z,97155.22
2023-12-26T09:02:20.054Z,97158.84
2023-12-26T09:07:21.800Z,97152.97
2023-12-26T09:12:23.953Z,97161.22
2023-12-26T09:17:26.074Z,97168.13
2023-12-26T09:22:27.918Z,97180.66
2023-12-26T09:27:29.970Z,97171.22
2023-12-26T09:32:31.887Z,97168.31
2023-12-26T09:37:36.509Z,97168.84
2023-12-26T09:42:38.563Z,97172.72
2023-12-26T09:47:44.449Z,97174.94
2023-12-26T09:52:53.577Z,97183.69
2023-12-26T09:57:58.829Z,97178.22
2023-12-26T10:03:01.469Z,97194.09
2023-12-26T10:08:03.412Z,97191.94
2023-12-26T10:13:05.303Z,97211.09
2023-12-26T10:18:09.299Z,97218.81
2023-12-26T10:23:12.691Z,97207.19
2023-12-26T10:28:17.435Z,97196.38
2023-12-26T10:33:27.336Z,97202.72
2023-12-26T10:38:29.472Z,97209.31
2023-12-26T10:43:34.869Z,97200.59
2023-12-26T10:48:38.096Z,97201.78
2023-12-26T10:53:48.514Z,97196.38
2023-12-26T10:58:53.204Z,97184.66
2023-12-26T11:03:55.360Z,97183.03
2023-12-26T11:08:58.131Z,97180.38
2023-12-26T11:14:00.025Z,97200.88
2023-12-26T11:19:03.151Z,97197.81
2023-12-26T11:24:07.117Z,97208.50
2023-12-26T11:29:09.613Z,97202.25
2023-12-26T11:34:16.033Z,97211.28
2023-12-26T11:39:19.245Z,97213.53
2023-12-26T11:44:22.153Z,97183.28
2023-12-26T11:49:24.127Z,97172.19
2023-12-26T11:54:26.142Z,97180.44
2023-12-26T11:59:28.553Z,97173.91
2023-12-26T12:04:30.523Z,97184.00
2023-12-26T12:09:32.244Z,97199.59
2023-12-26T12:14:34.510Z,97204.53
2023-12-26T12:19:38.138Z,97206.19
2023-12-26T12:24:40.203Z,97198.88
2023-12-26T12:30:01.082Z,97216.66
2023-12-26T12:35:19.638Z,97226.53
2023-12-26T12:40:23.749Z,97213.91
2023-12-26T12:45:25.801Z,97209.63
2023-12-26T12:50:27.634Z,97223.63
2023-12-26T12:55:29.507Z,97209.13
2023-12-26T13:00:31.735Z,97210.28
2023-12-26T13:05:33.572Z,97219.06
2023-12-26T13:10:35.910Z,97221.25
2023-12-26T13:15:39.336Z,97210.31
2023-12-26T13:20:41.580Z,97217.41
2023-12-26T13:25:43.929Z,97199.63
2023-12-26T13:30:48.270Z,97204.88
2023-12-26T13:35:50.225Z,97195.88
2023-12-26T13:40:52.092Z,97214.22
2023-12-26T13:45:53.980Z,97214.75
2023-12-26T13:50:55.763Z,97218.03
2023-12-26T13:55:57.716Z,97227.06
2023-12-26T14:00:59.626Z,97230.59
2023-12-26T14:06:01.448Z,97240.41
2023-12-26T14:11:04.285Z,97246.47
2023-12-26T14:16:06.111Z,97247.84
2023-12-26T14:21:08.432Z,97268.63
2023-12-26T14:26:10.348Z,97266.16
2023-12-26T14:31:12.473Z,97274.31
2023-12-26T14:36:14.347Z,97270.53
2023-12-26T14:41:16.406Z,97274.31
2023-12-26T14:46:18.294Z,97270.53
2023-12-26T14:51:21.992Z,97294.59
2023-12-26T14:56:23.889Z,97279.53
2023-12-26T15:01:27.478Z,97303.38
2023-12-26T15:06:30.098Z,97282.56
2023-12-26T15:11:32.076Z,97287.25
2023-12-26T15:16:34.035Z,97277.66
2023-12-26T15:21:44.559Z,97287.00
2023-12-26T15:26:46.497Z,97305.31
2023-12-26T15:31:48.618Z,97292.97
2023-12-26T15:36:50.785Z,97291.34
2023-12-26T15:41:52.625Z,97302.56
2023-12-26T15:46:54.834Z,97316.53
2023-12-26T15:51:57.113Z,97338.69
2023-12-26T15:56:58.991Z,97352.53
2023-12-26T16:02:01.242Z,97344.91
2023-12-26T16:07:03.458Z,97346.59
2023-12-26T16:12:05.457Z,97374.53
2023-12-26T16:17:07.261Z,97373.38
2023-12-26T16:22:09.119Z,97376.69
2023-12-26T16:27:11.637Z,97383.75
2023-12-26T16:32:15.534Z,97388.94
2023-12-26T16:37:17.211Z,97398.00
2023-12-26T16:42:21.835Z,97399.06
2023-12-26T16:47:23.782Z,97406.41
2023-12-26T16:52:25.840Z,97407.50
2023-12-26T16:57:30.966Z,97410.25
2023-12-26T17:02:33.409Z,97419.75
2023-12-26T17:07:35.204Z,97439.69
2023-12-26T17:12:37.270Z,97441.59
2023-12-26T17:17:39.289Z,97450.91
2023-12-26T17:22:42.674Z,97452.53
2023-12-26T17:27:44.616Z,97446.53
2023-12-26T17:32:47.337Z,97447.13
2023-12-26T17:37:49.680Z,97443.25
2023-12-26T17:42:51.475Z,97447.63
2023-12-26T17:47:53.669Z,97448.47
2023-12-26T17:52:55.575Z,97457.19
2023-12-26T17:57:58.136Z,97474.94
2023-12-26T18:03:00.481Z,97480.91
2023-12-26T18:08:02.582Z,97475.16
2023-12-26T18:13:04.973Z,97481.94
2023-12-26T18:18:07.106Z,97491.75
2023-12-26T18:23:10.574Z,97498.81
2023-12-26T18:28:12.394Z,97508.66
2023-12-26T18:33:16.607Z,97521.25
2023-12-26T18:38:18.578Z,97527.22
2023-12-26T18:43:20.733Z,97535.69
2023-12-26T18:48:25.551Z,97538.13
2023-12-26T18:53:27.522Z,97539.69
2023-12-26T18:58:29.690Z,97545.22
2023-12-26T19:03:31.490Z,97547.97
2023-12-26T19:08:33.762Z,97565.22
2023-12-26T19:13:38.577Z,97564.03
2023-12-26T19:18:43.758Z,97573.59
2023-12-26T19:23:52.417Z,97570.78
2023-12-26T19:28:55.197Z,97588.28
2023-12-26T19:33:57.290Z,97599.91
2023-12-26T19:39:00.066Z,97599.78
2023-12-26T19:44:01.809Z,97592.00
2023-12-26T19:49:04.118Z,97600.53
2023-12-26T19:54:06.036Z,97598.13
2023-12-26T19:59:09.904Z,97600.41
2023-12-26T20:04:12.053Z,97595.28
2023-12-26T20:09:20.274Z,97599.66
2023-12-26T20:14:25.936Z,97580.75
2023-12-26T20:19:28.740Z,97578.63
2023-12-26T20:24:32.793Z,97590.94
2023-12-26T20:29:35.525Z,97599.72
2023-12-26T20:34:38.223Z,97586.63
2023-12-26T20:39:40.431Z,97595.91
2023-12-26T20:44:44.309Z,97596.91
2023-12-26T20:49:48.094Z,97605.69
2023-12-26T20:54:50.719Z,97616.13
2023-12-26T20:59:52.872Z,97612.88
2023-12-26T21:04:55.392Z,97615.03
2023-12-26T21:09:57.401Z,97622.44
2023-12-26T21:15:01.060Z,97625.41
2023-12-26T21:20:05.928Z,97632.53
2023-12-26T21:25:14.967Z,97643.97
2023-12-26T21:30:17.555Z,97653.28
2023-12-26T21:35:19.653Z,97668.00
2023-12-26T21:40:21.478Z,97660.63
2023-12-26T21:45:23.315Z,97678.69
2023-12-26T21:50:25.306Z,97669.66
2023-12-26T21:55:27.097Z,97671.81
2023-12-26T22:00:30.801Z,97683.84
2023-12-26T22:05:32.723Z,97694.69
2023-12-26T22:10:34.513Z,97702.66
2023-12-26T22:15:36.902Z,97691.22
2023-12-26T22:20:39.146Z,97684.75
2023-12-26T22:25:49.396Z,97696.03
2023-12-26T22:30:51.226Z,97690.88
2023-12-26T22:35:53.039Z,97692.78
2023-12-26T22:40:54.881Z,97694.69
2023-12-26T22:45:56.762Z,97693.03
2023-12-26T22:50:58.659Z,97698.41
2023-12-26T22:56:01.738Z,97703.16
2023-12-26T23:01:05.351Z,97711.19
2023-12-26T23:06:07.459Z,97725.00
2023-12-26T23:11:09.525Z,97742.63
2023-12-26T23:16:11.506Z,97732.44
2023-12-26T23:21:18.306Z,97740.88
2023-12-26T23:26:21.525Z,97726.63
2023-12-26T23:31:23.505Z,97722.50
2023-12-26T23:36:25.784Z,97739.03
2023-12-26T23:41:27.613Z,97734.63
2023-12-26T23:46:29.421Z,97732.00
2023-12-26T23:51:33.385Z,97741.38
2023-12-26T23:56:35.171Z,97740.00
